Strona główna
METAR-TAF:

METAR-TAF

Lotnisko :

Port lotniczy Karlstad

Karlstad, Szwecja

Szerokość geograficzna: 59-26-41N, Długość geograficzna: 013-20-15E, wysokość: 107 m

Aktualna obserwacja pogody

Raport powstał 22 minut temu, godzina 05:50 UTC
Wiatr 3 kt od północno-północny zachód
Temperatura 17°C
Wilgotność 59%
Ciśnienie 1029 hPa
Widzialność 10 km lub więcej
Brak chmur poniżej 1500 m i brak chmur cumulonimbus

METAR: ESOK 010550Z 34003KT CAVOK 17/09 Q1029

czas: 08:12 (06:12 UTC)

Prognoza

Raport powstał 42 minut temu, godzina 05:30 UTC
Prognoza ważna od 01 godzina 06 UTC do 01 godzina 15 UTC
Wiatr 4 kt od północ
Widzialność 10 km lub więcej
Brak chmur poniżej 1500 m i brak chmur cumulonimbus
Prawdopodobieństwo 40%
od 01 godzina 13 UTC do 01 godzina 15 UTC
Wiatr 10 kt od południe

TAF: ESOK 010530Z 0106/0115 36004KT CAVOK PROB40 0113/0115 19010KT

Obserwacja i prognoza pogody dla ponad 4000 lotnisk (raport METAR i TAF).

Dostępne stacje oznaczono żółtymi i czerwonymi punktami na mapie.

Najedź kursorem aby zobaczyć nazwę stacji.

Kliknij aby zobaczyć obserwacje i prognozy pogody.

Aby zmienić mapę: kliknij na zielony przycisk z czarnym krzyżykiem, aby powiększyć; na zielony przycisk z myślnikiem, aby pomniejszyć; na zielone strzałki, aby przejść do map sąsiednich.


METAR-TAF: